Abram, Texas
Current Conditions -  °F | °C
As of 3:53 AM on Friday 21 Nov 2014 (Local Time) from KMFE Reporting Station
Overcast Overcast  
Wind Chill: 69°   Ceiling: 800
Heat Index: 69°   Visibility: 10mi
Dew Point: 68°   Wind: 9mph
Humidity: 96%   Direction: 140°SE
Pressure: 30.02"   Gusts: NA
Location:  26.2167°N, 98.325°W
Report Text: KMFE 210953Z AUTO 14008KT 10SM OVC008 21/20 A3002 RMK AO2 CIG 005V012 SLP162 T02060200
Loading
Personal Weather Stations






























Interactive Weather Map New forecast layout! Learn more

10-Day Weather Forecast

Advertisements
Track Severe Weather on mobile